Aérodrome :
LOGIN :

S'inscrire | Disclaimer

   EN    FR    IT 

 










Légende :    VFR   VFR Marginal   IFR   IFR Intensif   IFR Très Intensif
Visi : 
Plafond : 
>= 8 km
>= 3000ft
5 à 8 km
1000 à 3000 ft
1500m à 5 km
500 à 1000 ft
800 à 1500m
200 à 500 ft
< 800m
< 200 ft
Symboles :   Orages  Brouillard  Fortes neiges  Fortes précipitations  Vent > 20 kt
SIGMETs :   Divers  Orages  Givrage  Turbulence  Onde Orograph.  Cendres Volcan.






- Altitude de l'aérodrome : 297 ft
- Code IATA : UIP


LFRQ - Quimper Pluguffan

DERNIER METAR :
  • 170430Z AUTO 28014KT 9999 BKN014/// BKN020/// BKN025/// ///TCU 11/09 Q1009

METARs EXPIRÉS :
  • 170400Z AUTO 28013KT 9999 BKN015/// OVC024/// ///TCU 11/09 Q1009
  • 170330Z AUTO 28011KT 260V320 9999 SCT014/// BKN019/// BKN029/// ///TCU 11/09 Q1008
  • 170300Z AUTO 28011KT 9999 BKN014/// BKN023/// BKN030/// ///CB 10/09 Q1008
  • 170230Z AUTO 28012KT 250V310 9999 BKN014/// OVC020/// ///TCU 11/09 Q1008
  • 170200Z AUTO 28012KT 9999 BKN014/// OVC027/// ///TCU 11/09 Q1008
  • 170130Z AUTO 28014KT 9999 BKN013/// BKN018/// OVC025/// ///TCU 11/10 Q1008

TAF AMD TAF LFRQ
Valide du 16 à 20h jusqu'au 17 à 18h UTC


162026Z 1620/1718 25018G28KT 9999 BKN020
TEMPO 1620/1718 4500 SHRA BKN014TCU SCT030CB



MET'MAP, la Météo Aéronautique d'un coup d'oeil ! - Copyright ORBIFLY Décembre 2007 - Disclaimer

ORBIFLY MET'MAP TEAM :

Programmation & Développement : Alexandra Zaïnal
Sur une idée originale de : Baudouin d'Aumeries
Assistance à la programmation : Marc-Olivier Méhu
Soutien technique & logistique : Manuel Goepfert

Contact : metmap@orbifly.com




SOURCES & CREDITS :

   NOAA